sensor_id;sensor_type;location;lat;lon;timestamp;P1;durP1;ratioP1;P2;durP2;ratioP2
80215;SDS011;69532;37.974;23.708;2023-05-01T00:02:22;9.32;;;6.60;;
80215;SDS011;69532;37.974;23.708;2023-05-01T00:04:48;9.75;;;7.20;;
80215;SDS011;69532;37.974;23.708;2023-05-01T00:07:14;12.02;;;7.88;;
80215;SDS011;69532;37.974;23.708;2023-05-01T00:09:40;9.40;;;7.10;;
80215;SDS011;69532;37.974;23.708;2023-05-01T00:12:06;10.10;;;7.60;;
80215;SDS011;69532;37.974;23.708;2023-05-01T00:14:31;10.88;;;7.20;;
80215;SDS011;69532;37.974;23.708;2023-05-01T00:16:57;11.68;;;8.32;;
80215;SDS011;69532;37.974;23.708;2023-05-01T00:19:23;11.02;;;7.60;;
80215;SDS011;69532;37.974;23.708;2023-05-01T00:21:48;9.90;;;7.30;;
80215;SDS011;69532;37.974;23.708;2023-05-01T00:24:16;12.05;;;8.75;;
80215;SDS011;69532;37.974;23.708;2023-05-01T00:26:42;10.90;;;7.88;;
80215;SDS011;69532;37.974;23.708;2023-05-01T00:29:09;12.00;;;8.45;;
80215;SDS011;69532;37.974;23.708;2023-05-01T00:31:34;11.73;;;7.50;;
80215;SDS011;69532;37.974;23.708;2023-05-01T00:34:00;11.95;;;8.55;;
80215;SDS011;69532;37.974;23.708;2023-05-01T00:36:26;13.45;;;9.30;;
80215;SDS011;69532;37.974;23.708;2023-05-01T00:38:52;12.20;;;8.50;;
80215;SDS011;69532;37.974;23.708;2023-05-01T00:41:18;11.82;;;9.13;;
80215;SDS011;69532;37.974;23.708;2023-05-01T00:43:43;13.40;;;8.10;;
80215;SDS011;69532;37.974;23.708;2023-05-01T00:46:09;12.93;;;8.52;;
80215;SDS011;69532;37.974;23.708;2023-05-01T00:48:35;12.10;;;8.75;;
80215;SDS011;69532;37.974;23.708;2023-05-01T00:51:03;11.52;;;8.63;;
80215;SDS011;69532;37.974;23.708;2023-05-01T00:53:34;12.77;;;7.85;;
80215;SDS011;69532;37.974;23.708;2023-05-01T00:56:00;12.75;;;8.40;;
80215;SDS011;69532;37.974;23.708;2023-05-01T00:58:26;10.75;;;8.05;;
80215;SDS011;69532;37.974;23.708;2023-05-01T01:00:53;12.02;;;8.77;;
80215;SDS011;69532;37.974;23.708;2023-05-01T01:03:19;14.20;;;8.70;;
80215;SDS011;69532;37.974;23.708;2023-05-01T01:05:50;12.32;;;8.60;;
80215;SDS011;69532;37.974;23.708;2023-05-01T01:08:34;12.75;;;9.30;;
80215;SDS011;69532;37.974;23.708;2023-05-01T01:11:29;11.55;;;8.98;;
80215;SDS011;69532;37.974;23.708;2023-05-01T01:14:14;10.80;;;7.97;;
80215;SDS011;69532;37.974;23.708;2023-05-01T01:16:48;12.38;;;8.70;;
80215;SDS011;69532;37.974;23.708;2023-05-01T01:22:04;13.18;;;8.57;;
80215;SDS011;69532;37.974;23.708;2023-05-01T01:35:19;14.02;;;10.40;;
80215;SDS011;69532;37.974;23.708;2023-05-01T01:40:32;12.57;;;8.63;;
80215;SDS011;69532;37.974;23.708;2023-05-01T01:43:03;12.82;;;8.70;;
80215;SDS011;69532;37.974;23.708;2023-05-01T01:48:12;13.20;;;9.00;;
80215;SDS011;69532;37.974;23.708;2023-05-01T01:50:43;13.35;;;10.10;;
80215;SDS011;69532;37.974;23.708;2023-05-01T01:53:11;14.50;;;9.13;;
80215;SDS011;69532;37.974;23.708;2023-05-01T01:55:40;13.20;;;9.40;;
80215;SDS011;69532;37.974;23.708;2023-05-01T01:58:08;12.30;;;9.77;;
80215;SDS011;69532;37.974;23.708;2023-05-01T02:00:36;13.95;;;8.80;;
80215;SDS011;69532;37.974;23.708;2023-05-01T02:03:05;12.80;;;9.02;;
80215;SDS011;69532;37.974;23.708;2023-05-01T02:05:31;12.57;;;9.32;;
80215;SDS011;69532;37.974;23.708;2023-05-01T02:07:58;12.93;;;9.50;;
80215;SDS011;69532;37.974;23.708;2023-05-01T02:10:24;11.82;;;9.30;;
80215;SDS011;69532;37.974;23.708;2023-05-01T02:12:53;14.05;;;9.55;;
80215;SDS011;69532;37.974;23.708;2023-05-01T02:15:20;12.73;;;9.30;;
80215;SDS011;69532;37.974;23.708;2023-05-01T02:17:47;14.15;;;9.35;;
80215;SDS011;69532;37.974;23.708;2023-05-01T02:20:15;11.18;;;9.13;;
80215;SDS011;69532;37.974;23.708;2023-05-01T02:22:43;12.23;;;9.18;;
80215;SDS011;69532;37.974;23.708;2023-05-01T02:25:11;12.05;;;8.73;;
80215;SDS011;69532;37.974;23.708;2023-05-01T02:27:39;12.13;;;8.45;;
80215;SDS011;69532;37.974;23.708;2023-05-01T02:32:37;14.10;;;9.07;;
80215;SDS011;69532;37.974;23.708;2023-05-01T02:35:03;12.80;;;8.80;;
80215;SDS011;69532;37.974;23.708;2023-05-01T02:37:29;13.35;;;8.77;;
80215;SDS011;69532;37.974;23.708;2023-05-01T02:39:55;13.88;;;8.75;;
80215;SDS011;69532;37.974;23.708;2023-05-01T02:42:22;13.32;;;9.02;;
80215;SDS011;69532;37.974;23.708;2023-05-01T02:44:53;10.45;;;8.32;;
80215;SDS011;69532;37.974;23.708;2023-05-01T02:47:21;12.07;;;9.13;;
80215;SDS011;69532;37.974;23.708;2023-05-01T02:49:47;12.73;;;8.70;;
80215;SDS011;69532;37.974;23.708;2023-05-01T02:52:15;12.57;;;8.68;;
80215;SDS011;69532;37.974;23.708;2023-05-01T02:54:43;14.93;;;8.95;;
80215;SDS011;69532;37.974;23.708;2023-05-01T02:57:10;13.60;;;9.38;;
80215;SDS011;69532;37.974;23.708;2023-05-01T02:59:37;12.40;;;9.35;;
80215;SDS011;69532;37.974;23.708;2023-05-01T03:02:02;10.65;;;8.05;;
80215;SDS011;69532;37.974;23.708;2023-05-01T03:04:28;13.70;;;9.55;;
80215;SDS011;69532;37.974;23.708;2023-05-01T03:06:54;12.30;;;8.75;;
80215;SDS011;69532;37.974;23.708;2023-05-01T03:09:20;14.45;;;9.48;;
80215;SDS011;69532;37.974;23.708;2023-05-01T03:11:47;13.63;;;9.50;;
80215;SDS011;69532;37.974;23.708;2023-05-01T03:14:12;13.27;;;8.27;;
80215;SDS011;69532;37.974;23.708;2023-05-01T03:16:38;11.63;;;9.30;;
80215;SDS011;69532;37.974;23.708;2023-05-01T03:19:05;11.63;;;8.55;;
80215;SDS011;69532;37.974;23.708;2023-05-01T03:21:31;15.23;;;9.23;;
80215;SDS011;69532;37.974;23.708;2023-05-01T03:23:57;10.75;;;8.45;;
80215;SDS011;69532;37.974;23.708;2023-05-01T03:26:24;12.63;;;8.95;;
80215;SDS011;69532;37.974;23.708;2023-05-01T03:28:50;12.68;;;9.18;;
80215;SDS011;69532;37.974;23.708;2023-05-01T03:31:16;12.05;;;9.07;;
80215;SDS011;69532;37.974;23.708;2023-05-01T03:33:41;11.98;;;8.40;;
80215;SDS011;69532;37.974;23.708;2023-05-01T03:36:07;13.32;;;8.82;;
80215;SDS011;69532;37.974;23.708;2023-05-01T03:38:35;12.85;;;9.07;;
80215;SDS011;69532;37.974;23.708;2023-05-01T03:41:01;12.23;;;8.80;;
80215;SDS011;69532;37.974;23.708;2023-05-01T03:43:29;13.40;;;8.90;;
80215;SDS011;69532;37.974;23.708;2023-05-01T03:45:55;10.75;;;7.88;;
80215;SDS011;69532;37.974;23.708;2023-05-01T03:48:21;11.85;;;8.38;;
80215;SDS011;69532;37.974;23.708;2023-05-01T03:50:47;12.23;;;8.75;;
80215;SDS011;69532;37.974;23.708;2023-05-01T03:53:13;10.93;;;8.10;;
80215;SDS011;69532;37.974;23.708;2023-05-01T03:55:39;11.27;;;7.82;;
80215;SDS011;69532;37.974;23.708;2023-05-01T03:58:05;13.38;;;8.45;;
80215;SDS011;69532;37.974;23.708;2023-05-01T04:00:31;11.80;;;7.85;;
80215;SDS011;69532;37.974;23.708;2023-05-01T04:02:58;11.52;;;8.40;;
80215;SDS011;69532;37.974;23.708;2023-05-01T04:05:23;13.52;;;8.77;;
80215;SDS011;69532;37.974;23.708;2023-05-01T04:07:49;12.25;;;8.75;;
80215;SDS011;69532;37.974;23.708;2023-05-01T04:10:15;13.32;;;9.80;;
80215;SDS011;69532;37.974;23.708;2023-05-01T04:12:41;10.15;;;7.93;;
80215;SDS011;69532;37.974;23.708;2023-05-01T04:15:07;14.50;;;9.60;;
80215;SDS011;69532;37.974;23.708;2023-05-01T04:17:34;12.15;;;9.10;;
80215;SDS011;69532;37.974;23.708;2023-05-01T04:20:01;13.50;;;8.98;;
80215;SDS011;69532;37.974;23.708;2023-05-01T04:22:28;13.73;;;8.65;;
80215;SDS011;69532;37.974;23.708;2023-05-01T04:24:54;12.80;;;8.13;;
80215;SDS011;69532;37.974;23.708;2023-05-01T04:27:20;12.35;;;8.52;;
80215;SDS011;69532;37.974;23.708;2023-05-01T04:29:46;12.52;;;8.45;;
80215;SDS011;69532;37.974;23.708;2023-05-01T04:32:11;14.07;;;8.88;;
80215;SDS011;69532;37.974;23.708;2023-05-01T04:34:37;12.00;;;8.45;;
80215;SDS011;69532;37.974;23.708;2023-05-01T04:37:03;14.38;;;8.30;;
80215;SDS011;69532;37.974;23.708;2023-05-01T04:39:31;15.32;;;9.00;;
80215;SDS011;69532;37.974;23.708;2023-05-01T04:41:57;12.52;;;9.90;;
80215;SDS011;69532;37.974;23.708;2023-05-01T04:44:23;13.15;;;8.70;;
80215;SDS011;69532;37.974;23.708;2023-05-01T04:46:49;12.35;;;8.63;;
80215;SDS011;69532;37.974;23.708;2023-05-01T04:49:14;12.98;;;9.07;;
80215;SDS011;69532;37.974;23.708;2023-05-01T04:51:40;11.88;;;8.70;;
80215;SDS011;69532;37.974;23.708;2023-05-01T04:54:06;13.23;;;9.15;;
80215;SDS011;69532;37.974;23.708;2023-05-01T04:56:31;11.15;;;7.95;;
80215;SDS011;69532;37.974;23.708;2023-05-01T04:58:57;13.80;;;9.50;;
80215;SDS011;69532;37.974;23.708;2023-05-01T05:01:23;13.95;;;9.45;;
80215;SDS011;69532;37.974;23.708;2023-05-01T05:03:49;12.73;;;8.55;;
80215;SDS011;69532;37.974;23.708;2023-05-01T05:06:14;17.92;;;10.30;;
80215;SDS011;69532;37.974;23.708;2023-05-01T05:08:40;15.07;;;9.73;;
80215;SDS011;69532;37.974;23.708;2023-05-01T05:11:06;13.18;;;9.50;;
80215;SDS011;69532;37.974;23.708;2023-05-01T05:13:32;14.98;;;11.27;;
80215;SDS011;69532;37.974;23.708;2023-05-01T05:15:57;12.38;;;9.18;;
80215;SDS011;69532;37.974;23.708;2023-05-01T05:18:23;16.13;;;10.68;;
80215;SDS011;69532;37.974;23.708;2023-05-01T05:20:49;14.52;;;10.55;;
80215;SDS011;69532;37.974;23.708;2023-05-01T05:23:15;12.52;;;9.52;;
80215;SDS011;69532;37.974;23.708;2023-05-01T05:25:40;12.65;;;8.93;;
80215;SDS011;69532;37.974;23.708;2023-05-01T05:28:06;14.18;;;10.05;;
80215;SDS011;69532;37.974;23.708;2023-05-01T05:30:32;15.82;;;11.20;;
80215;SDS011;69532;37.974;23.708;2023-05-01T05:32:58;14.43;;;10.00;;
80215;SDS011;69532;37.974;23.708;2023-05-01T05:35:24;13.15;;;8.90;;
80215;SDS011;69532;37.974;23.708;2023-05-01T05:37:50;14.18;;;10.70;;
80215;SDS011;69532;37.974;23.708;2023-05-01T05:40:16;13.27;;;9.52;;
80215;SDS011;69532;37.974;23.708;2023-05-01T05:42:41;13.55;;;10.02;;
80215;SDS011;69532;37.974;23.708;2023-05-01T05:45:07;13.25;;;8.27;;
80215;SDS011;69532;37.974;23.708;2023-05-01T05:47:33;14.65;;;10.20;;
80215;SDS011;69532;37.974;23.708;2023-05-01T05:49:59;14.32;;;9.35;;
80215;SDS011;69532;37.974;23.708;2023-05-01T05:52:25;12.88;;;8.77;;
80215;SDS011;69532;37.974;23.708;2023-05-01T05:54:50;15.13;;;9.45;;
80215;SDS011;69532;37.974;23.708;2023-05-01T05:57:16;14.63;;;9.10;;
80215;SDS011;69532;37.974;23.708;2023-05-01T05:59:42;11.02;;;7.60;;
80215;SDS011;69532;37.974;23.708;2023-05-01T06:02:09;11.65;;;7.20;;
80215;SDS011;69532;37.974;23.708;2023-05-01T06:04:34;12.25;;;8.23;;
80215;SDS011;69532;37.974;23.708;2023-05-01T06:07:00;10.77;;;7.03;;
80215;SDS011;69532;37.974;23.708;2023-05-01T06:09:26;13.60;;;8.73;;
80215;SDS011;69532;37.974;23.708;2023-05-01T06:11:51;16.52;;;10.25;;
80215;SDS011;69532;37.974;23.708;2023-05-01T06:14:17;15.50;;;8.52;;
80215;SDS011;69532;37.974;23.708;2023-05-01T06:16:43;12.75;;;9.32;;
80215;SDS011;69532;37.974;23.708;2023-05-01T06:19:08;12.68;;;8.77;;
80215;SDS011;69532;37.974;23.708;2023-05-01T06:21:36;12.85;;;9.30;;
80215;SDS011;69532;37.974;23.708;2023-05-01T06:24:01;15.50;;;9.93;;
80215;SDS011;69532;37.974;23.708;2023-05-01T06:26:27;11.43;;;7.45;;
80215;SDS011;69532;37.974;23.708;2023-05-01T06:28:53;11.35;;;7.55;;
80215;SDS011;69532;37.974;23.708;2023-05-01T06:31:19;14.35;;;8.20;;
80215;SDS011;69532;37.974;23.708;2023-05-01T06:33:45;14.18;;;9.05;;
80215;SDS011;69532;37.974;23.708;2023-05-01T06:36:10;11.15;;;7.32;;
80215;SDS011;69532;37.974;23.708;2023-05-01T06:38:36;10.45;;;7.95;;
80215;SDS011;69532;37.974;23.708;2023-05-01T06:41:05;13.40;;;8.38;;
80215;SDS011;69532;37.974;23.708;2023-05-01T06:43:31;9.80;;;7.32;;
80215;SDS011;69532;37.974;23.708;2023-05-01T06:45:57;11.40;;;8.13;;
80215;SDS011;69532;37.974;23.708;2023-05-01T06:48:23;12.95;;;7.57;;
80215;SDS011;69532;37.974;23.708;2023-05-01T06:50:49;11.90;;;8.15;;
80215;SDS011;69532;37.974;23.708;2023-05-01T06:53:14;10.65;;;6.78;;
80215;SDS011;69532;37.974;23.708;2023-05-01T06:55:40;11.60;;;6.38;;
80215;SDS011;69532;37.974;23.708;2023-05-01T06:58:06;12.43;;;8.75;;
80215;SDS011;69532;37.974;23.708;2023-05-01T07:00:34;12.85;;;7.63;;
80215;SDS011;69532;37.974;23.708;2023-05-01T07:03:01;8.85;;;6.63;;
80215;SDS011;69532;37.974;23.708;2023-05-01T07:05:28;8.98;;;5.53;;
80215;SDS011;69532;37.974;23.708;2023-05-01T07:07:54;8.90;;;6.82;;
80215;SDS011;69532;37.974;23.708;2023-05-01T07:10:20;8.55;;;5.43;;
80215;SDS011;69532;37.974;23.708;2023-05-01T07:12:45;9.35;;;6.22;;
80215;SDS011;69532;37.974;23.708;2023-05-01T07:15:11;11.50;;;7.50;;
80215;SDS011;69532;37.974;23.708;2023-05-01T07:17:40;10.32;;;5.95;;
80215;SDS011;69532;37.974;23.708;2023-05-01T07:20:06;10.63;;;7.50;;
80215;SDS011;69532;37.974;23.708;2023-05-01T07:22:32;9.45;;;6.25;;
80215;SDS011;69532;37.974;23.708;2023-05-01T07:24:58;11.60;;;6.45;;
80215;SDS011;69532;37.974;23.708;2023-05-01T07:27:26;11.35;;;6.35;;
80215;SDS011;69532;37.974;23.708;2023-05-01T07:29:54;7.35;;;4.93;;
80215;SDS011;69532;37.974;23.708;2023-05-01T07:32:20;8.35;;;5.68;;
80215;SDS011;69532;37.974;23.708;2023-05-01T07:34:46;9.05;;;6.20;;
80215;SDS011;69532;37.974;23.708;2023-05-01T07:37:12;10.50;;;7.57;;
80215;SDS011;69532;37.974;23.708;2023-05-01T07:39:37;10.60;;;7.82;;
80215;SDS011;69532;37.974;23.708;2023-05-01T07:42:03;10.18;;;6.60;;
80215;SDS011;69532;37.974;23.708;2023-05-01T07:44:28;10.07;;;5.35;;
80215;SDS011;69532;37.974;23.708;2023-05-01T07:46:54;9.73;;;6.15;;
80215;SDS011;69532;37.974;23.708;2023-05-01T07:49:26;8.95;;;5.63;;
80215;SDS011;69532;37.974;23.708;2023-05-01T07:51:53;9.00;;;5.57;;
80215;SDS011;69532;37.974;23.708;2023-05-01T07:54:19;7.97;;;4.60;;
80215;SDS011;69532;37.974;23.708;2023-05-01T07:56:46;9.00;;;6.35;;
80215;SDS011;69532;37.974;23.708;2023-05-01T07:59:12;10.82;;;6.18;;
80215;SDS011;69532;37.974;23.708;2023-05-01T08:01:39;8.82;;;5.95;;
80215;SDS011;69532;37.974;23.708;2023-05-01T08:04:05;7.93;;;5.07;;
80215;SDS011;69532;37.974;23.708;2023-05-01T08:06:31;8.90;;;4.85;;
80215;SDS011;69532;37.974;23.708;2023-05-01T08:08:57;10.05;;;6.25;;
80215;SDS011;69532;37.974;23.708;2023-05-01T08:11:23;9.35;;;6.53;;
80215;SDS011;69532;37.974;23.708;2023-05-01T08:13:50;8.48;;;5.22;;
80215;SDS011;69532;37.974;23.708;2023-05-01T08:16:16;8.90;;;4.78;;
80215;SDS011;69532;37.974;23.708;2023-05-01T08:18:44;7.18;;;3.80;;
80215;SDS011;69532;37.974;23.708;2023-05-01T08:21:10;7.97;;;4.53;;
80215;SDS011;69532;37.974;23.708;2023-05-01T08:23:36;7.80;;;4.18;;
80215;SDS011;69532;37.974;23.708;2023-05-01T08:26:02;8.35;;;4.38;;
80215;SDS011;69532;37.974;23.708;2023-05-01T08:28:27;7.95;;;4.93;;
80215;SDS011;69532;37.974;23.708;2023-05-01T08:30:53;9.68;;;6.10;;
80215;SDS011;69532;37.974;23.708;2023-05-01T08:33:19;7.05;;;4.30;;
80215;SDS011;69532;37.974;23.708;2023-05-01T08:35:44;7.97;;;5.28;;
80215;SDS011;69532;37.974;23.708;2023-05-01T08:38:10;10.75;;;6.13;;
80215;SDS011;69532;37.974;23.708;2023-05-01T08:40:36;9.82;;;6.18;;
80215;SDS011;69532;37.974;23.708;2023-05-01T08:43:03;9.43;;;5.65;;
80215;SDS011;69532;37.974;23.708;2023-05-01T08:45:33;8.30;;;5.53;;
80215;SDS011;69532;37.974;23.708;2023-05-01T08:48:03;6.93;;;5.03;;
80215;SDS011;69532;37.974;23.708;2023-05-01T08:50:34;6.78;;;4.00;;
80215;SDS011;69532;37.974;23.708;2023-05-01T08:53:03;7.90;;;4.95;;
80215;SDS011;69532;37.974;23.708;2023-05-01T08:55:30;7.38;;;4.80;;
80215;SDS011;69532;37.974;23.708;2023-05-01T08:57:57;10.05;;;6.20;;
80215;SDS011;69532;37.974;23.708;2023-05-01T09:00:24;9.65;;;6.35;;
80215;SDS011;69532;37.974;23.708;2023-05-01T09:02:50;8.20;;;5.13;;
80215;SDS011;69532;37.974;23.708;2023-05-01T09:05:19;7.85;;;4.85;;
80215;SDS011;69532;37.974;23.708;2023-05-01T09:07:46;9.00;;;6.55;;
80215;SDS011;69532;37.974;23.708;2023-05-01T09:10:12;9.43;;;5.88;;
80215;SDS011;69532;37.974;23.708;2023-05-01T09:12:40;12.48;;;6.10;;
80215;SDS011;69532;37.974;23.708;2023-05-01T09:15:09;7.00;;;5.00;;
80215;SDS011;69532;37.974;23.708;2023-05-01T09:17:35;8.80;;;5.25;;
80215;SDS011;69532;37.974;23.708;2023-05-01T09:20:01;7.65;;;4.35;;
80215;SDS011;69532;37.974;23.708;2023-05-01T09:22:31;8.63;;;4.57;;
80215;SDS011;69532;37.974;23.708;2023-05-01T09:24:58;9.70;;;5.70;;
80215;SDS011;69532;37.974;23.708;2023-05-01T09:27:31;7.80;;;6.00;;
80215;SDS011;69532;37.974;23.708;2023-05-01T09:29:59;8.23;;;6.10;;
80215;SDS011;69532;37.974;23.708;2023-05-01T09:32:25;8.32;;;6.03;;
80215;SDS011;69532;37.974;23.708;2023-05-01T09:34:55;7.70;;;5.60;;
80215;SDS011;69532;37.974;23.708;2023-05-01T09:37:33;11.35;;;7.18;;
80215;SDS011;69532;37.974;23.708;2023-05-01T09:42:29;9.77;;;6.78;;
80215;SDS011;69532;37.974;23.708;2023-05-01T09:44:56;8.77;;;6.00;;
80215;SDS011;69532;37.974;23.708;2023-05-01T09:47:26;8.75;;;5.18;;
80215;SDS011;69532;37.974;23.708;2023-05-01T09:49:53;7.78;;;5.05;;
80215;SDS011;69532;37.974;23.708;2023-05-01T09:52:21;8.07;;;6.05;;
80215;SDS011;69532;37.974;23.708;2023-05-01T09:55:30;9.52;;;5.45;;
80215;SDS011;69532;37.974;23.708;2023-05-01T09:57:49;8.90;;;4.78;;
80215;SDS011;69532;37.974;23.708;2023-05-01T10:00:15;9.55;;;6.32;;
80215;SDS011;69532;37.974;23.708;2023-05-01T10:02:43;7.50;;;4.63;;
80215;SDS011;69532;37.974;23.708;2023-05-01T10:05:10;8.23;;;5.03;;
80215;SDS011;69532;37.974;23.708;2023-05-01T10:07:37;7.72;;;4.03;;
80215;SDS011;69532;37.974;23.708;2023-05-01T10:12:45;6.13;;;3.67;;
80215;SDS011;69532;37.974;23.708;2023-05-01T10:15:11;6.05;;;3.25;;
80215;SDS011;69532;37.974;23.708;2023-05-01T10:17:38;7.88;;;4.75;;
80215;SDS011;69532;37.974;23.708;2023-05-01T10:20:05;6.50;;;4.25;;
80215;SDS011;69532;37.974;23.708;2023-05-01T10:22:32;6.45;;;3.70;;
80215;SDS011;69532;37.974;23.708;2023-05-01T10:24:58;6.03;;;3.30;;
80215;SDS011;69532;37.974;23.708;2023-05-01T10:27:24;6.00;;;3.45;;
80215;SDS011;69532;37.974;23.708;2023-05-01T10:29:53;5.18;;;3.05;;
80215;SDS011;69532;37.974;23.708;2023-05-01T10:32:19;5.53;;;3.60;;
80215;SDS011;69532;37.974;23.708;2023-05-01T10:34:56;6.88;;;3.45;;
80215;SDS011;69532;37.974;23.708;2023-05-01T10:37:36;6.72;;;3.25;;
80215;SDS011;69532;37.974;23.708;2023-05-01T10:45:40;6.88;;;4.40;;
80215;SDS011;69532;37.974;23.708;2023-05-01T10:48:06;6.75;;;4.63;;
80215;SDS011;69532;37.974;23.708;2023-05-01T10:50:32;6.35;;;3.70;;
80215;SDS011;69532;37.974;23.708;2023-05-01T10:55:48;8.88;;;5.60;;
80215;SDS011;69532;37.974;23.708;2023-05-01T11:03:56;7.15;;;4.80;;
80215;SDS011;69532;37.974;23.708;2023-05-01T11:06:23;8.10;;;5.15;;
80215;SDS011;69532;37.974;23.708;2023-05-01T11:08:50;6.13;;;4.00;;
80215;SDS011;69532;37.974;23.708;2023-05-01T11:14:00;8.48;;;5.32;;
80215;SDS011;69532;37.974;23.708;2023-05-01T11:19:09;10.93;;;6.20;;
80215;SDS011;69532;37.974;23.708;2023-05-01T11:21:55;9.30;;;5.78;;
80215;SDS011;69532;37.974;23.708;2023-05-01T11:24:29;9.27;;;5.80;;
80215;SDS011;69532;37.974;23.708;2023-05-01T11:26:56;6.40;;;4.25;;
80215;SDS011;69532;37.974;23.708;2023-05-01T11:29:24;6.32;;;4.30;;
80215;SDS011;69532;37.974;23.708;2023-05-01T11:31:59;6.90;;;4.10;;
80215;SDS011;69532;37.974;23.708;2023-05-01T11:34:25;8.93;;;5.57;;
80215;SDS011;69532;37.974;23.708;2023-05-01T11:36:52;7.40;;;4.95;;
80215;SDS011;69532;37.974;23.708;2023-05-01T11:39:18;7.18;;;4.35;;
80215;SDS011;69532;37.974;23.708;2023-05-01T11:41:45;7.05;;;4.57;;
80215;SDS011;69532;37.974;23.708;2023-05-01T11:44:11;7.70;;;5.00;;
80215;SDS011;69532;37.974;23.708;2023-05-01T11:46:40;6.20;;;4.10;;
80215;SDS011;69532;37.974;23.708;2023-05-01T11:49:06;8.82;;;5.15;;
80215;SDS011;69532;37.974;23.708;2023-05-01T11:51:33;7.88;;;4.72;;
80215;SDS011;69532;37.974;23.708;2023-05-01T11:56:33;7.78;;;4.40;;
80215;SDS011;69532;37.974;23.708;2023-05-01T11:59:10;6.88;;;4.80;;
80215;SDS011;69532;37.974;23.708;2023-05-01T12:01:40;7.22;;;4.90;;
80215;SDS011;69532;37.974;23.708;2023-05-01T12:04:08;7.55;;;4.30;;
80215;SDS011;69532;37.974;23.708;2023-05-01T12:09:05;8.73;;;4.55;;
80215;SDS011;69532;37.974;23.708;2023-05-01T12:11:32;7.00;;;4.20;;
80215;SDS011;69532;37.974;23.708;2023-05-01T12:13:58;6.95;;;4.00;;
80215;SDS011;69532;37.974;23.708;2023-05-01T12:16:25;6.57;;;4.07;;
80215;SDS011;69532;37.974;23.708;2023-05-01T12:18:52;7.72;;;4.45;;
80215;SDS011;69532;37.974;23.708;2023-05-01T12:21:18;7.47;;;4.20;;
80215;SDS011;69532;37.974;23.708;2023-05-01T12:23:43;5.78;;;3.33;;
80215;SDS011;69532;37.974;23.708;2023-05-01T12:26:22;7.10;;;3.70;;
80215;SDS011;69532;37.974;23.708;2023-05-01T12:28:59;6.25;;;3.50;;
80215;SDS011;69532;37.974;23.708;2023-05-01T12:31:26;6.53;;;3.35;;
80215;SDS011;69532;37.974;23.708;2023-05-01T12:33:56;5.18;;;3.10;;
80215;SDS011;69532;37.974;23.708;2023-05-01T12:36:27;5.38;;;3.03;;
80215;SDS011;69532;37.974;23.708;2023-05-01T12:41:41;5.50;;;2.90;;
80215;SDS011;69532;37.974;23.708;2023-05-01T12:46:43;5.07;;;2.47;;
80215;SDS011;69532;37.974;23.708;2023-05-01T12:49:17;5.13;;;2.75;;
80215;SDS011;69532;37.974;23.708;2023-05-01T12:51:45;5.65;;;2.83;;
80215;SDS011;69532;37.974;23.708;2023-05-01T12:54:21;6.30;;;2.75;;
80215;SDS011;69532;37.974;23.708;2023-05-01T12:56:48;6.38;;;3.03;;
80215;SDS011;69532;37.974;23.708;2023-05-01T13:01:46;4.80;;;2.40;;
80215;SDS011;69532;37.974;23.708;2023-05-01T13:04:12;5.35;;;2.42;;
80215;SDS011;69532;37.974;23.708;2023-05-01T13:06:45;6.00;;;2.65;;
80215;SDS011;69532;37.974;23.708;2023-05-01T13:09:11;5.55;;;2.70;;
80215;SDS011;69532;37.974;23.708;2023-05-01T13:11:36;5.10;;;2.63;;
80215;SDS011;69532;37.974;23.708;2023-05-01T13:14:06;5.00;;;2.50;;
80215;SDS011;69532;37.974;23.708;2023-05-01T13:16:32;6.22;;;2.78;;
80215;SDS011;69532;37.974;23.708;2023-05-01T13:18:59;4.95;;;2.70;;
80215;SDS011;69532;37.974;23.708;2023-05-01T13:21:25;5.50;;;2.42;;
80215;SDS011;69532;37.974;23.708;2023-05-01T13:23:52;5.88;;;2.40;;
80215;SDS011;69532;37.974;23.708;2023-05-01T13:26:29;5.15;;;2.58;;
80215;SDS011;69532;37.974;23.708;2023-05-01T13:28:59;5.78;;;2.58;;
80215;SDS011;69532;37.974;23.708;2023-05-01T13:31:27;4.85;;;2.35;;
80215;SDS011;69532;37.974;23.708;2023-05-01T13:33:54;4.65;;;2.17;;
80215;SDS011;69532;37.974;23.708;2023-05-01T13:36:21;3.97;;;2.00;;
80215;SDS011;69532;37.974;23.708;2023-05-01T13:38:48;4.50;;;2.20;;
80215;SDS011;69532;37.974;23.708;2023-05-01T13:41:19;4.60;;;2.28;;
80215;SDS011;69532;37.974;23.708;2023-05-01T13:43:46;5.78;;;2.38;;
80215;SDS011;69532;37.974;23.708;2023-05-01T13:46:13;4.43;;;2.00;;
80215;SDS011;69532;37.974;23.708;2023-05-01T13:48:39;4.68;;;2.03;;
80215;SDS011;69532;37.974;23.708;2023-05-01T13:51:06;4.05;;;1.88;;
80215;SDS011;69532;37.974;23.708;2023-05-01T13:53:33;4.65;;;2.25;;
80215;SDS011;69532;37.974;23.708;2023-05-01T13:55:59;4.30;;;2.00;;
80215;SDS011;69532;37.974;23.708;2023-05-01T13:58:29;4.40;;;2.00;;
80215;SDS011;69532;37.974;23.708;2023-05-01T14:00:56;4.55;;;2.17;;
80215;SDS011;69532;37.974;23.708;2023-05-01T14:03:21;5.43;;;2.50;;
80215;SDS011;69532;37.974;23.708;2023-05-01T14:05:47;4.80;;;2.17;;
80215;SDS011;69532;37.974;23.708;2023-05-01T14:08:13;5.50;;;2.03;;
80215;SDS011;69532;37.974;23.708;2023-05-01T14:10:39;4.78;;;2.10;;
80215;SDS011;69532;37.974;23.708;2023-05-01T14:13:05;4.78;;;2.10;;
80215;SDS011;69532;37.974;23.708;2023-05-01T14:15:34;5.50;;;2.10;;
80215;SDS011;69532;37.974;23.708;2023-05-01T14:18:03;4.93;;;2.45;;
80215;SDS011;69532;37.974;23.708;2023-05-01T14:20:31;4.13;;;1.92;;
80215;SDS011;69532;37.974;23.708;2023-05-01T14:22:57;5.38;;;2.00;;
80215;SDS011;69532;37.974;23.708;2023-05-01T14:25:27;4.30;;;2.00;;
80215;SDS011;69532;37.974;23.708;2023-05-01T14:27:58;6.10;;;2.85;;
80215;SDS011;69532;37.974;23.708;2023-05-01T14:30:32;5.20;;;2.88;;
80215;SDS011;69532;37.974;23.708;2023-05-01T14:33:20;4.47;;;2.30;;
80215;SDS011;69532;37.974;23.708;2023-05-01T14:35:49;5.15;;;2.28;;
80215;SDS011;69532;37.974;23.708;2023-05-01T14:38:17;5.25;;;2.28;;
80215;SDS011;69532;37.974;23.708;2023-05-01T14:40:43;5.18;;;2.30;;
80215;SDS011;69532;37.974;23.708;2023-05-01T14:43:16;4.75;;;2.40;;
80215;SDS011;69532;37.974;23.708;2023-05-01T14:45:46;4.90;;;2.50;;
80215;SDS011;69532;37.974;23.708;2023-05-01T14:48:20;4.50;;;2.20;;
80215;SDS011;69532;37.974;23.708;2023-05-01T14:50:47;4.88;;;2.22;;
80215;SDS011;69532;37.974;23.708;2023-05-01T14:53:14;5.35;;;2.30;;
80215;SDS011;69532;37.974;23.708;2023-05-01T14:55:40;4.60;;;2.42;;
80215;SDS011;69532;37.974;23.708;2023-05-01T14:58:06;4.40;;;2.30;;
80215;SDS011;69532;37.974;23.708;2023-05-01T15:00:32;6.20;;;2.63;;
80215;SDS011;69532;37.974;23.708;2023-05-01T15:02:58;4.40;;;2.20;;
80215;SDS011;69532;37.974;23.708;2023-05-01T15:05:24;4.55;;;2.30;;
80215;SDS011;69532;37.974;23.708;2023-05-01T15:07:53;5.13;;;2.50;;
80215;SDS011;69532;37.974;23.708;2023-05-01T15:10:24;4.35;;;2.20;;
80215;SDS011;69532;37.974;23.708;2023-05-01T15:12:50;4.55;;;2.30;;
80215;SDS011;69532;37.974;23.708;2023-05-01T15:15:16;4.53;;;2.42;;
80215;SDS011;69532;37.974;23.708;2023-05-01T15:17:42;4.90;;;2.30;;
80215;SDS011;69532;37.974;23.708;2023-05-01T15:20:09;4.97;;;2.60;;
80215;SDS011;69532;37.974;23.708;2023-05-01T15:22:35;5.32;;;2.60;;
80215;SDS011;69532;37.974;23.708;2023-05-01T15:25:01;5.07;;;2.50;;
80215;SDS011;69532;37.974;23.708;2023-05-01T15:27:27;5.70;;;2.55;;
80215;SDS011;69532;37.974;23.708;2023-05-01T15:29:53;4.78;;;2.70;;